Time;durP1;ratioP1;P1;durP2;ratioP2;P2;SDS_P1;SDS_P2;PMS_P1;PMS_P2;Temp;Humidity;BMP_temperature;BMP_pressure;BME280_temperature;BME280_humidity;BME280_pressure;Samples;Min_cycle;Max_cycle;Signal;HPM_P1;HPM_P2
2024/01/15 00:02:18;;;;;;;14.38;4.15;;;;;;;;;;5063557;28;20545;-81
2024/01/15 00:04:47;;;;;;;16.95;4.65;;;;;;;;;;5057499;28;20099;-82
2024/01/15 00:07:15;;;;;;;14.43;4.15;;;;;;;;;;5087410;27;20127;-81
2024/01/15 00:09:46;;;;;;;15.50;4.47;;;;;;;;;;5104655;28;20766;-84
2024/01/15 00:12:15;;;;;;;16.50;4.20;;;;;;;;;;5078197;28;20195;-84
2024/01/15 00:14:43;;;;;;;14.45;4.40;;;;;;;;;;5088137;27;20030;-82
2024/01/15 00:17:12;;;;;;;17.05;4.82;;;;;;;;;;5082694;27;20044;-81
2024/01/15 00:19:41;;;;;;;14.43;4.55;;;;;;;;;;5086999;27;20480;-82
2024/01/15 00:22:08;;;;;;;15.18;3.50;;;;;;;;;;5083239;27;20028;-81
2024/01/15 00:24:36;;;;;;;19.25;4.72;;;;;;;;;;5084877;28;20468;-81
2024/01/15 00:27:05;;;;;;;13.63;4.63;;;;;;;;;;5091113;27;20078;-81
2024/01/15 00:29:34;;;;;;;16.80;4.85;;;;;;;;;;5087125;28;20055;-81
2024/01/15 00:32:05;;;;;;;13.70;4.53;;;;;;;;;;5089406;28;20036;-82
2024/01/15 00:34:32;;;;;;;16.75;4.93;;;;;;;;;;5091253;28;20031;-82
2024/01/15 00:37:01;;;;;;;14.55;4.13;;;;;;;;;;5089532;28;20036;-81
2024/01/15 00:39:29;;;;;;;15.88;4.20;;;;;;;;;;5088162;28;20141;-81
2024/01/15 00:41:58;;;;;;;15.50;4.78;;;;;;;;;;5090906;28;20028;-81
2024/01/15 00:44:27;;;;;;;18.38;5.35;;;;;;;;;;5085988;27;20967;-84
2024/01/15 00:46:54;;;;;;;16.13;5.47;;;;;;;;;;5072984;28;20031;-83
2024/01/15 00:49:24;;;;;;;17.40;5.35;;;;;;;;;;5072805;28;20067;-83
2024/01/15 00:51:53;;;;;;;14.55;4.13;;;;;;;;;;5092146;27;20502;-81
2024/01/15 00:54:22;;;;;;;13.15;3.97;;;;;;;;;;5072180;28;20804;-81
2024/01/15 00:56:50;;;;;;;13.95;4.40;;;;;;;;;;5091841;28;20032;-83
2024/01/15 00:59:17;;;;;;;17.08;5.05;;;;;;;;;;5088335;28;20030;-83
2024/01/15 01:01:46;;;;;;;14.98;5.25;;;;;;;;;;5092468;27;20602;-83
2024/01/15 01:04:14;;;;;;;14.57;4.38;;;;;;;;;;5055437;28;20062;-82
2024/01/15 01:06:41;;;;;;;14.52;4.03;;;;;;;;;;5091358;28;20040;-83
2024/01/15 01:09:10;;;;;;;16.17;4.35;;;;;;;;;;5091130;27;20110;-83
2024/01/15 01:11:39;;;;;;;16.75;4.60;;;;;;;;;;5073055;28;20596;-82
2024/01/15 01:14:05;;;;;;;15.73;5.68;;;;;;;;;;5068671;28;20036;-81
2024/01/15 01:16:38;;;;;;;14.68;5.43;;;;;;;;;;5069033;28;20070;-82
2024/01/15 01:19:07;;;;;;;16.88;5.20;;;;;;;;;;5068573;28;20040;-82
2024/01/15 01:21:36;;;;;;;14.02;4.45;;;;;;;;;;5071244;28;20033;-83
2024/01/15 01:24:04;;;;;;;12.10;3.10;;;;;;;;;;5071814;28;20139;-83
2024/01/15 01:26:33;;;;;;;13.48;3.83;;;;;;;;;;5071225;28;20167;-82
2024/01/15 01:29:02;;;;;;;14.63;4.20;;;;;;;;;;5071422;28;20040;-82
2024/01/15 01:31:31;;;;;;;18.35;4.47;;;;;;;;;;5069426;28;20117;-82
2024/01/15 01:33:59;;;;;;;14.88;3.97;;;;;;;;;;5071645;28;20039;-81
2024/01/15 01:36:28;;;;;;;13.40;3.72;;;;;;;;;;5068193;28;20043;-81
2024/01/15 01:38:56;;;;;;;16.67;4.40;;;;;;;;;;5080030;28;20086;-81
2024/01/15 01:41:25;;;;;;;12.27;3.97;;;;;;;;;;5079900;28;20032;-82
2024/01/15 01:43:54;;;;;;;12.38;3.78;;;;;;;;;;5073275;28;20046;-81
2024/01/15 01:46:23;;;;;;;9.60;2.95;;;;;;;;;;5071590;28;20032;-81
2024/01/15 01:48:51;;;;;;;11.57;3.15;;;;;;;;;;5068148;28;20054;-82
2024/01/15 01:51:18;;;;;;;12.25;3.47;;;;;;;;;;5049986;28;20043;-82
2024/01/15 01:53:47;;;;;;;10.98;2.38;;;;;;;;;;5061814;28;20031;-82
2024/01/15 01:56:15;;;;;;;12.30;2.65;;;;;;;;;;5081220;28;20028;-82
2024/01/15 01:58:42;;;;;;;9.65;2.33;;;;;;;;;;5070874;28;20063;-82
2024/01/15 02:01:13;;;;;;;9.68;2.35;;;;;;;;;;5088278;28;20164;-82
2024/01/15 02:03:41;;;;;;;10.30;2.40;;;;;;;;;;5083152;28;20384;-82
2024/01/15 02:06:09;;;;;;;10.82;2.20;;;;;;;;;;5066219;28;20571;-82
2024/01/15 02:08:38;;;;;;;11.82;2.45;;;;;;;;;;5070960;28;20020;-82
2024/01/15 02:11:07;;;;;;;11.00;1.98;;;;;;;;;;5083090;28;20593;-82
2024/01/15 02:13:36;;;;;;;10.30;2.25;;;;;;;;;;5090133;27;20031;-82
2024/01/15 02:16:03;;;;;;;11.32;2.95;;;;;;;;;;5072278;28;20041;-82
2024/01/15 02:18:29;;;;;;;8.07;2.03;;;;;;;;;;5072566;28;20031;-82
2024/01/15 02:20:58;;;;;;;8.43;1.98;;;;;;;;;;5073823;28;20048;-82
2024/01/15 02:23:26;;;;;;;11.20;2.35;;;;;;;;;;5071871;27;20931;-82
2024/01/15 02:25:54;;;;;;;10.85;2.30;;;;;;;;;;5073672;28;20195;-82
2024/01/15 02:28:23;;;;;;;9.75;2.35;;;;;;;;;;5070334;27;20043;-83
2024/01/15 02:30:51;;;;;;;9.60;2.28;;;;;;;;;;5072406;28;20035;-83
2024/01/15 02:33:19;;;;;;;8.90;2.17;;;;;;;;;;5054414;28;20510;-82
2024/01/15 02:35:50;;;;;;;9.52;2.60;;;;;;;;;;5072487;28;20054;-82
2024/01/15 02:38:20;;;;;;;12.30;2.83;;;;;;;;;;5084430;28;20477;-82
2024/01/15 02:40:54;;;;;;;13.05;2.60;;;;;;;;;;5072002;28;20028;-82
2024/01/15 02:43:32;;;;;;;12.52;2.50;;;;;;;;;;5089990;28;20044;-82
2024/01/15 02:46:01;;;;;;;9.07;2.25;;;;;;;;;;5073681;28;20031;-82
2024/01/15 02:48:29;;;;;;;11.00;3.10;;;;;;;;;;5088098;27;20032;-82
2024/01/15 02:50:58;;;;;;;11.18;3.47;;;;;;;;;;5087420;28;20028;-82
2024/01/15 02:53:26;;;;;;;11.23;3.70;;;;;;;;;;5086010;28;20930;-82
2024/01/15 02:55:55;;;;;;;15.23;4.70;;;;;;;;;;5073955;28;20027;-82
2024/01/15 02:58:24;;;;;;;12.02;5.78;;;;;;;;;;5070550;28;20042;-82
2024/01/15 03:00:52;;;;;;;10.52;3.63;;;;;;;;;;5087211;27;20031;-83
2024/01/15 03:03:21;;;;;;;11.02;2.97;;;;;;;;;;5084584;28;20847;-82
2024/01/15 03:05:50;;;;;;;10.63;2.30;;;;;;;;;;5091522;27;20027;-83
2024/01/15 03:08:17;;;;;;;9.40;2.60;;;;;;;;;;5086853;28;20030;-82
2024/01/15 03:10:44;;;;;;;11.35;2.50;;;;;;;;;;5090314;27;20044;-81
2024/01/15 03:13:13;;;;;;;9.50;2.15;;;;;;;;;;5089837;28;20138;-82
2024/01/15 03:15:41;;;;;;;10.85;1.95;;;;;;;;;;5093837;27;20031;-83
2024/01/15 03:18:10;;;;;;;8.93;1.90;;;;;;;;;;5068549;27;20024;-82
2024/01/15 03:20:39;;;;;;;9.52;2.33;;;;;;;;;;5074534;28;20638;-82
2024/01/15 03:23:08;;;;;;;11.32;2.20;;;;;;;;;;5085870;28;20019;-82
2024/01/15 03:25:36;;;;;;;9.05;2.10;;;;;;;;;;5085071;28;20507;-83
2024/01/15 03:28:03;;;;;;;12.00;2.20;;;;;;;;;;5084539;28;20106;-82
2024/01/15 03:30:30;;;;;;;;;;;;;;;;;;5073097;28;20057;-82
2024/01/15 03:32:58;;;;;;;10.18;2.15;;;;;;;;;;5076934;28;19915;-82
2024/01/15 03:35:29;;;;;;;8.25;2.00;;;;;;;;;;5086855;28;20088;-82
2024/01/15 03:37:57;;;;;;;10.35;2.00;;;;;;;;;;5088731;28;20035;-81
2024/01/15 03:40:26;;;;;;;8.38;2.10;;;;;;;;;;5071444;28;20742;-80
2024/01/15 03:42:55;;;;;;;7.55;1.90;;;;;;;;;;5073302;28;20035;-81
2024/01/15 03:45:27;;;;;;;8.25;1.92;;;;;;;;;;5069872;28;20127;-81
2024/01/15 03:47:54;;;;;;;9.55;2.03;;;;;;;;;;5085766;28;20031;-81
2024/01/15 03:50:24;;;;;;;7.68;1.67;;;;;;;;;;5066261;28;20059;-82
2024/01/15 03:52:53;;;;;;;9.85;1.90;;;;;;;;;;5091057;28;20063;-83
2024/01/15 03:55:22;;;;;;;7.53;1.95;;;;;;;;;;5088333;27;20584;-80
2024/01/15 03:57:54;;;;;;;8.75;1.90;;;;;;;;;;5088198;28;20092;-81
2024/01/15 04:00:23;;;;;;;10.80;1.70;;;;;;;;;;5074118;28;20039;-81
2024/01/15 04:02:51;;;;;;;10.93;1.80;;;;;;;;;;5077196;28;20054;-81
2024/01/15 04:05:21;;;;;;;9.02;1.83;;;;;;;;;;5088888;27;20649;-82
2024/01/15 04:07:49;;;;;;;9.23;2.05;;;;;;;;;;5073643;28;20039;-83
2024/01/15 04:10:17;;;;;;;7.78;2.00;;;;;;;;;;5090536;28;20058;-81
2024/01/15 04:12:49;;;;;;;11.60;2.35;;;;;;;;;;5074422;28;20528;-81
2024/01/15 04:15:17;;;;;;;9.57;2.60;;;;;;;;;;5088362;27;20028;-81
2024/01/15 04:17:46;;;;;;;11.18;3.42;;;;;;;;;;5074307;28;20030;-81
2024/01/15 04:20:15;;;;;;;10.63;2.65;;;;;;;;;;5089412;27;20580;-82
2024/01/15 04:22:52;;;;;;;9.25;1.90;;;;;;;;;;5093859;27;20023;-82
2024/01/15 04:25:21;;;;;;;9.82;1.70;;;;;;;;;;5071772;28;20100;-81
2024/01/15 04:27:49;;;;;;;6.88;2.00;;;;;;;;;;5095174;28;20030;-81
2024/01/15 04:30:17;;;;;;;8.90;1.80;;;;;;;;;;5092780;28;20047;-81
2024/01/15 04:32:44;;;;;;;10.90;2.00;;;;;;;;;;5093296;28;20035;-81
2024/01/15 04:35:13;;;;;;;7.53;1.85;;;;;;;;;;5092202;27;20040;-81
2024/01/15 04:37:41;;;;;;;7.30;1.60;;;;;;;;;;5094379;27;20032;-82
2024/01/15 04:40:10;;;;;;;9.05;1.60;;;;;;;;;;5095090;27;20079;-81
2024/01/15 04:42:39;;;;;;;8.77;1.92;;;;;;;;;;5075749;28;20819;-82
2024/01/15 04:45:06;;;;;;;6.50;1.70;;;;;;;;;;5077309;28;20024;-81
2024/01/15 04:47:36;;;;;;;7.75;1.60;;;;;;;;;;5080500;28;20114;-83
2024/01/15 04:50:04;;;;;;;7.70;1.60;;;;;;;;;;5078670;28;20040;-81
2024/01/15 04:52:31;;;;;;;7.80;1.67;;;;;;;;;;5094359;28;20039;-83
2024/01/15 04:55:00;;;;;;;7.07;1.73;;;;;;;;;;5062944;28;20039;-81
2024/01/15 04:57:28;;;;;;;8.75;1.58;;;;;;;;;;5093223;27;20028;-81
2024/01/15 04:59:57;;;;;;;8.07;1.65;;;;;;;;;;5080140;28;20035;-82
2024/01/15 05:02:26;;;;;;;7.78;1.83;;;;;;;;;;5073967;28;20158;-82
2024/01/15 05:04:55;;;;;;;8.70;2.13;;;;;;;;;;5092988;27;20028;-81
2024/01/15 05:07:23;;;;;;;9.25;2.40;;;;;;;;;;5090821;27;20093;-81
2024/01/15 05:09:53;;;;;;;10.10;2.67;;;;;;;;;;5094313;27;20016;-81
2024/01/15 05:12:22;;;;;;;10.30;3.00;;;;;;;;;;5093115;28;20046;-81
2024/01/15 05:15:21;;;;;;;9.73;2.75;;;;;;;;;;5092791;28;20842;-81
2024/01/15 05:17:50;;;;;;;11.85;3.13;;;;;;;;;;5093401;28;20031;-81
2024/01/15 05:20:18;;;;;;;11.60;3.40;;;;;;;;;;5091362;28;20016;-81
2024/01/15 05:22:47;;;;;;;11.43;3.13;;;;;;;;;;5072813;28;20070;-81
2024/01/15 05:25:14;;;;;;;11.45;2.90;;;;;;;;;;5089550;27;20035;-81
2024/01/15 05:27:40;;;;;;;11.15;3.35;;;;;;;;;;5072292;28;20112;-81
2024/01/15 05:30:07;;;;;;;11.60;3.30;;;;;;;;;;5071163;28;20081;-81
2024/01/15 05:32:36;;;;;;;16.30;3.50;;;;;;;;;;5074432;28;20031;-81
2024/01/15 05:35:02;;;;;;;13.02;3.17;;;;;;;;;;5089483;28;20023;-81
2024/01/15 05:37:30;;;;;;;14.45;3.00;;;;;;;;;;5088650;27;20035;-81
2024/01/15 05:39:58;;;;;;;11.80;3.20;;;;;;;;;;5092449;28;20495;-81
2024/01/15 05:42:30;;;;;;;11.90;3.35;;;;;;;;;;5088115;28;20794;-82
2024/01/15 05:45:03;;;;;;;14.25;3.83;;;;;;;;;;5093105;27;20050;-82
2024/01/15 05:47:32;;;;;;;12.85;3.22;;;;;;;;;;5077100;28;20027;-82
2024/01/15 05:50:02;;;;;;;12.95;3.45;;;;;;;;;;5076694;28;20015;-82
2024/01/15 05:52:30;;;;;;;12.27;3.28;;;;;;;;;;5075787;27;20039;-82
2024/01/15 05:54:58;;;;;;;11.52;3.58;;;;;;;;;;5075140;28;20085;-82
2024/01/15 05:57:27;;;;;;;15.20;4.60;;;;;;;;;;5089145;27;20074;-82
2024/01/15 05:59:57;;;;;;;16.27;4.60;;;;;;;;;;5090996;27;20027;-81
2024/01/15 06:02:25;;;;;;;16.95;4.57;;;;;;;;;;5073002;28;21308;-82
2024/01/15 06:04:54;;;;;;;13.65;3.88;;;;;;;;;;5091792;28;20930;-82
2024/01/15 06:07:22;;;;;;;15.15;4.82;;;;;;;;;;5091118;27;20034;-82
2024/01/15 06:09:51;;;;;;;14.77;4.60;;;;;;;;;;5075279;28;20032;-81
2024/01/15 06:12:20;;;;;;;15.35;4.68;;;;;;;;;;5075524;28;20495;-83
2024/01/15 06:14:49;;;;;;;20.65;5.00;;;;;;;;;;5094705;27;20032;-81
2024/01/15 06:17:16;;;;;;;12.68;4.38;;;;;;;;;;5059657;28;20039;-83
2024/01/15 06:19:45;;;;;;;15.15;4.13;;;;;;;;;;5089638;27;20027;-82
2024/01/15 06:22:14;;;;;;;12.60;3.88;;;;;;;;;;5068271;28;20791;-83
2024/01/15 06:24:42;;;;;;;14.65;4.32;;;;;;;;;;5088947;28;20111;-82
2024/01/15 06:27:10;;;;;;;12.55;4.35;;;;;;;;;;5087711;27;20032;-83
2024/01/15 06:29:39;;;;;;;14.07;4.28;;;;;;;;;;5070937;28;20039;-81
2024/01/15 06:32:08;;;;;;;11.80;4.00;;;;;;;;;;5068394;27;20106;-81
2024/01/15 06:34:37;;;;;;;13.90;3.95;;;;;;;;;;5069670;28;20066;-81
2024/01/15 06:37:06;;;;;;;15.52;4.60;;;;;;;;;;5072970;28;20031;-81
2024/01/15 06:39:33;;;;;;;12.48;4.13;;;;;;;;;;5069318;28;20039;-81
2024/01/15 06:42:02;;;;;;;11.38;4.15;;;;;;;;;;5086849;27;20449;-83
2024/01/15 06:44:31;;;;;;;17.45;8.38;;;;;;;;;;5089387;28;20035;-81
2024/01/15 06:47:02;;;;;;;15.65;6.00;;;;;;;;;;5091455;28;20103;-82
2024/01/15 06:49:30;;;;;;;16.15;4.57;;;;;;;;;;5071824;28;20037;-83
2024/01/15 06:51:58;;;;;;;13.82;4.30;;;;;;;;;;5090446;28;20864;-82
2024/01/15 06:54:27;;;;;;;12.80;4.25;;;;;;;;;;5085059;27;20362;-85
2024/01/15 06:56:56;;;;;;;13.60;4.82;;;;;;;;;;5088514;27;20027;-85
2024/01/15 06:59:24;;;;;;;16.88;5.72;;;;;;;;;;5071605;27;20483;-84
2024/01/15 07:01:55;;;;;;;18.15;5.00;;;;;;;;;;5093415;27;20028;-84
2024/01/15 07:04:24;;;;;;;14.32;4.95;;;;;;;;;;5090161;27;20927;-85
2024/01/15 07:06:50;;;;;;;18.38;6.20;;;;;;;;;;5093253;27;20035;-85
2024/01/15 07:09:19;;;;;;;15.18;5.28;;;;;;;;;;5088066;27;20051;-85
2024/01/15 07:11:49;;;;;;;16.88;6.18;;;;;;;;;;5088986;28;20124;-85
2024/01/15 07:14:19;;;;;;;13.10;5.00;;;;;;;;;;5086795;27;20032;-84
2024/01/15 07:16:48;;;;;;;19.85;5.65;;;;;;;;;;5073226;28;20036;-84
2024/01/15 07:19:17;;;;;;;15.68;5.63;;;;;;;;;;5070337;28;20558;-85
2024/01/15 07:21:44;;;;;;;14.25;5.32;;;;;;;;;;5083767;27;20114;-84
2024/01/15 07:24:13;;;;;;;15.35;5.00;;;;;;;;;;5087328;27;20018;-84
2024/01/15 07:26:42;;;;;;;13.73;5.20;;;;;;;;;;5085422;28;20078;-83
2024/01/15 07:29:10;;;;;;;15.30;5.50;;;;;;;;;;5066925;28;20023;-83
2024/01/15 07:31:39;;;;;;;17.75;6.28;;;;;;;;;;5085732;28;20039;-85
2024/01/15 07:34:06;;;;;;;16.67;5.90;;;;;;;;;;5080304;27;20563;-88
2024/01/15 07:36:35;;;;;;;14.32;5.57;;;;;;;;;;5067563;28;20517;-86
2024/01/15 07:39:04;;;;;;;15.90;6.05;;;;;;;;;;5073741;28;20100;-85
2024/01/15 07:41:33;;;;;;;17.10;6.15;;;;;;;;;;5085665;28;20506;-85
2024/01/15 07:44:01;;;;;;;16.67;6.05;;;;;;;;;;5069112;28;20127;-83
2024/01/15 07:46:29;;;;;;;14.75;6.13;;;;;;;;;;5068501;28;20110;-84
2024/01/15 07:48:58;;;;;;;14.35;5.38;;;;;;;;;;5069607;28;20849;-83
2024/01/15 07:51:25;;;;;;;14.55;6.50;;;;;;;;;;5087406;28;20154;-83
2024/01/15 07:53:57;;;;;;;16.98;6.50;;;;;;;;;;5076368;28;20154;-83
2024/01/15 07:56:27;;;;;;;16.10;6.75;;;;;;;;;;5067931;28;20831;-82
2024/01/15 07:58:59;;;;;;;14.52;5.70;;;;;;;;;;5085050;28;20855;-83
2024/01/15 08:01:28;;;;;;;22.42;6.65;;;;;;;;;;5085046;28;20447;-83
2024/01/15 08:03:57;;;;;;;16.00;6.20;;;;;;;;;;5084116;27;20020;-83
2024/01/15 08:06:24;;;;;;;16.90;6.80;;;;;;;;;;5068989;28;21120;-83
2024/01/15 08:08:51;;;;;;;19.85;6.65;;;;;;;;;;5071422;28;20118;-83
2024/01/15 08:11:20;;;;;;;16.20;6.13;;;;;;;;;;5085402;27;20137;-83
2024/01/15 08:13:49;;;;;;;14.02;6.03;;;;;;;;;;5068508;28;20499;-83
2024/01/15 08:16:17;;;;;;;17.10;6.20;;;;;;;;;;5085392;28;20104;-83
2024/01/15 08:18:45;;;;;;;17.02;6.57;;;;;;;;;;5085942;28;20464;-83
2024/01/15 08:21:11;;;;;;;14.82;6.32;;;;;;;;;;5068115;27;20161;-82
2024/01/15 08:23:40;;;;;;;16.95;6.60;;;;;;;;;;5085808;28;20254;-83
2024/01/15 08:26:10;;;;;;;16.48;5.57;;;;;;;;;;5084267;28;20067;-83
2024/01/15 08:28:48;;;;;;;22.20;7.28;;;;;;;;;;5086132;28;20063;-82
2024/01/15 08:31:16;;;;;;;19.40;6.50;;;;;;;;;;5086836;27;20440;-83
2024/01/15 08:33:53;;;;;;;16.00;5.47;;;;;;;;;;5089563;27;20040;-81
2024/01/15 08:36:21;;;;;;;20.70;5.97;;;;;;;;;;5085237;28;20035;-80
2024/01/15 08:38:49;;;;;;;17.15;6.30;;;;;;;;;;5082873;27;20123;-80
2024/01/15 08:41:40;;;;;;;18.05;5.95;;;;;;;;;;5068696;28;20058;-83
2024/01/15 08:44:11;;;;;;;18.13;5.60;;;;;;;;;;5066123;28;20612;-83
2024/01/15 08:46:40;;;;;;;20.08;6.15;;;;;;;;;;5072453;28;20059;-81
2024/01/15 08:49:07;;;;;;;17.48;5.72;;;;;;;;;;5071770;28;20273;-81
2024/01/15 08:51:35;;;;;;;23.42;7.82;;;;;;;;;;5091423;27;20028;-81
2024/01/15 08:54:04;;;;;;;20.35;7.07;;;;;;;;;;5073064;27;21106;-81
2024/01/15 08:56:32;;;;;;;15.75;6.53;;;;;;;;;;5092273;27;20118;-81
2024/01/15 08:59:00;;;;;;;18.73;6.05;;;;;;;;;;5091428;28;20067;-81
2024/01/15 09:01:30;;;;;;;20.80;6.90;;;;;;;;;;5086095;28;20463;-81
2024/01/15 09:03:58;;;;;;;18.85;6.53;;;;;;;;;;5091697;27;20116;-81
2024/01/15 09:06:29;;;;;;;22.15;5.65;;;;;;;;;;5086996;28;20057;-84
2024/01/15 09:08:56;;;;;;;18.25;6.15;;;;;;;;;;5073040;28;20081;-81
2024/01/15 09:11:24;;;;;;;15.18;5.88;;;;;;;;;;5067096;28;20437;-81
2024/01/15 09:13:51;;;;;;;17.77;6.10;;;;;;;;;;5069351;28;20055;-82
2024/01/15 09:16:22;;;;;;;17.85;5.82;;;;;;;;;;5068436;28;20502;-82
2024/01/15 09:18:50;;;;;;;20.00;5.50;;;;;;;;;;5068439;28;20035;-79
2024/01/15 09:21:19;;;;;;;22.63;5.50;;;;;;;;;;5064692;28;20115;-80
2024/01/15 09:23:48;;;;;;;21.95;5.13;;;;;;;;;;5066293;28;20032;-80
2024/01/15 09:26:17;;;;;;;15.80;4.55;;;;;;;;;;5063869;28;20773;-80
2024/01/15 09:28:45;;;;;;;14.25;4.63;;;;;;;;;;5064220;28;20024;-82
2024/01/15 09:31:14;;;;;;;12.30;4.10;;;;;;;;;;5066812;28;20085;-79
2024/01/15 09:33:41;;;;;;;14.63;4.78;;;;;;;;;;5070343;28;20028;-80
2024/01/15 09:36:10;;;;;;;14.98;5.78;;;;;;;;;;5060303;28;20503;-83
2024/01/15 09:38:38;;;;;;;14.23;4.88;;;;;;;;;;5068610;28;20077;-80
2024/01/15 09:41:07;;;;;;;12.23;4.40;;;;;;;;;;5062683;28;20071;-80
2024/01/15 09:43:37;;;;;;;14.65;5.30;;;;;;;;;;5065298;28;20451;-80
2024/01/15 09:46:06;;;;;;;15.70;5.50;;;;;;;;;;5066567;28;20119;-81
2024/01/15 09:48:42;;;;;;;12.70;4.60;;;;;;;;;;5069987;28;20024;-81
2024/01/15 09:51:10;;;;;;;12.38;3.83;;;;;;;;;;5065253;28;20040;-81
2024/01/15 09:53:39;;;;;;;12.32;4.22;;;;;;;;;;5067110;28;20047;-81
2024/01/15 09:56:05;;;;;;;13.63;4.05;;;;;;;;;;5062027;28;20655;-80
2024/01/15 09:58:37;;;;;;;15.85;4.68;;;;;;;;;;5064187;28;20024;-80
2024/01/15 10:01:04;;;;;;;15.82;5.80;;;;;;;;;;5066642;28;20083;-79
2024/01/15 10:03:33;;;;;;;15.18;4.07;;;;;;;;;;5066915;28;20051;-82
2024/01/15 10:06:02;;;;;;;14.73;5.07;;;;;;;;;;5065050;28;20048;-80
2024/01/15 10:08:39;;;;;;;19.88;6.05;;;;;;;;;;5067620;28;20103;-79
2024/01/15 10:11:40;;;;;;;15.02;5.50;;;;;;;;;;5074635;27;20130;-81
2024/01/15 10:14:15;;;;;;;18.13;7.00;;;;;;;;;;5081148;28;20118;-81
2024/01/15 10:16:44;;;;;;;18.45;7.60;;;;;;;;;;5085305;28;20084;-79
2024/01/15 10:19:20;;;;;;;20.63;7.45;;;;;;;;;;5082000;27;20468;-80
2024/01/15 10:21:49;;;;;;;16.13;6.32;;;;;;;;;;5069514;28;20023;-80
2024/01/15 10:24:19;;;;;;;17.27;6.88;;;;;;;;;;5066896;28;20027;-81
2024/01/15 10:26:48;;;;;;;17.55;6.13;;;;;;;;;;5071457;28;20448;-82
2024/01/15 10:29:15;;;;;;;20.17;5.53;;;;;;;;;;5067978;28;20840;-82
2024/01/15 10:31:44;;;;;;;17.98;5.00;;;;;;;;;;5056276;28;20032;-81
2024/01/15 10:34:23;;;;;;;16.75;4.20;;;;;;;;;;5070131;28;20208;-83
2024/01/15 10:36:55;;;;;;;13.30;4.20;;;;;;;;;;5087218;28;20023;-83
2024/01/15 10:39:24;;;;;;;19.08;4.22;;;;;;;;;;5064646;28;20131;-82
2024/01/15 10:41:51;;;;;;;13.90;4.68;;;;;;;;;;5069999;28;20043;-81
2024/01/15 10:44:20;;;;;;;17.20;3.80;;;;;;;;;;5085890;28;20096;-82
2024/01/15 10:46:49;;;;;;;19.23;4.18;;;;;;;;;;5064865;28;20043;-82
2024/01/15 10:49:20;;;;;;;15.85;4.85;;;;;;;;;;5067666;28;20110;-82
2024/01/15 10:51:48;;;;;;;17.70;5.07;;;;;;;;;;5070404;28;20142;-82
2024/01/15 10:54:18;;;;;;;17.40;4.72;;;;;;;;;;5050402;28;20148;-81
2024/01/15 10:56:46;;;;;;;16.02;4.47;;;;;;;;;;5069934;28;20070;-81
2024/01/15 10:59:15;;;;;;;12.57;3.40;;;;;;;;;;5052478;27;20108;-83
2024/01/15 11:01:42;;;;;;;16.00;3.90;;;;;;;;;;5050706;28;20045;-82
2024/01/15 11:04:10;;;;;;;15.90;3.70;;;;;;;;;;5069407;28;20034;-83
2024/01/15 11:06:56;;;;;;;16.27;4.00;;;;;;;;;;5069524;28;20030;-80
2024/01/15 11:09:22;;;;;;;13.45;3.10;;;;;;;;;;5083396;28;20038;-82
2024/01/15 11:11:55;;;;;;;19.23;3.58;;;;;;;;;;5066384;28;20052;-82
2024/01/15 11:14:43;;;;;;;13.80;3.33;;;;;;;;;;5063438;28;20143;-82
2024/01/15 11:17:34;;;;;;;14.50;3.90;;;;;;;;;;5060609;28;20440;-82
2024/01/15 11:20:03;;;;;;;13.13;3.30;;;;;;;;;;5067186;28;20061;-82
2024/01/15 11:22:49;;;;;;;14.88;3.35;;;;;;;;;;5065735;28;20750;-82
2024/01/15 11:25:21;;;;;;;15.27;4.33;;;;;;;;;;5065116;28;20302;-82
2024/01/15 11:28:00;;;;;;;16.63;4.82;;;;;;;;;;5066494;28;20028;-81
2024/01/15 11:30:28;;;;;;;16.50;5.45;;;;;;;;;;5060678;28;20035;-83
2024/01/15 11:33:19;;;;;;;11.60;4.60;;;;;;;;;;5066503;28;20177;-82
2024/01/15 11:35:53;;;;;;;17.85;5.22;;;;;;;;;;5063454;28;20110;-82
2024/01/15 11:38:32;;;;;;;13.00;3.80;;;;;;;;;;5064232;28;20032;-81
2024/01/15 11:41:03;;;;;;;13.20;3.50;;;;;;;;;;5063707;28;20067;-82
2024/01/15 11:43:33;;;;;;;18.50;4.70;;;;;;;;;;5061155;28;20047;-82
2024/01/15 11:46:03;;;;;;;21.23;5.07;;;;;;;;;;5064096;28;20063;-81
2024/01/15 11:48:39;;;;;;;22.75;5.70;;;;;;;;;;5066204;28;20529;-81
2024/01/15 11:51:06;;;;;;;23.95;5.32;;;;;;;;;;5075844;28;20043;-80
2024/01/15 11:53:57;;;;;;;22.50;5.30;;;;;;;;;;5051602;28;20024;-81
2024/01/15 11:56:25;;;;;;;26.65;5.50;;;;;;;;;;5050915;28;20059;-85
2024/01/15 11:58:53;;;;;;;21.20;5.28;;;;;;;;;;5055698;28;20598;-82
2024/01/15 12:01:21;;;;;;;24.60;5.70;;;;;;;;;;5073649;28;20118;-82
2024/01/15 12:03:49;;;;;;;20.88;4.55;;;;;;;;;;5051182;28;20109;-83
2024/01/15 12:06:16;;;;;;;25.02;5.60;;;;;;;;;;5065930;28;21151;-82
2024/01/15 12:08:45;;;;;;;24.45;6.35;;;;;;;;;;5069112;28;20085;-80
2024/01/15 12:11:14;;;;;;;31.05;6.47;;;;;;;;;;5066724;28;20674;-84
2024/01/15 12:13:42;;;;;;;26.90;5.88;;;;;;;;;;5071951;28;20043;-82
2024/01/15 12:16:10;;;;;;;25.92;5.85;;;;;;;;;;5070508;28;20812;-81
2024/01/15 12:18:39;;;;;;;26.35;6.30;;;;;;;;;;5069068;28;20032;-81
2024/01/15 12:21:06;;;;;;;24.65;5.53;;;;;;;;;;5067875;28;20115;-82
2024/01/15 12:23:34;;;;;;;22.38;5.72;;;;;;;;;;5070763;28;20907;-82
2024/01/15 12:26:02;;;;;;;25.75;5.40;;;;;;;;;;5053321;28;20046;-81
2024/01/15 12:28:31;;;;;;;22.95;5.03;;;;;;;;;;5069109;28;20587;-81
2024/01/15 12:31:00;;;;;;;19.52;5.22;;;;;;;;;;5072479;28;20027;-81
2024/01/15 12:33:30;;;;;;;21.90;4.97;;;;;;;;;;5070038;28;20040;-81
2024/01/15 12:35:58;;;;;;;21.23;5.03;;;;;;;;;;5074640;28;20031;-81
2024/01/15 12:38:27;;;;;;;22.42;5.57;;;;;;;;;;5072162;28;20500;-82
2024/01/15 12:40:56;;;;;;;21.83;5.38;;;;;;;;;;5066793;28;20078;-82
2024/01/15 12:43:23;;;;;;;18.77;5.22;;;;;;;;;;5070725;28;20032;-82
2024/01/15 12:45:55;;;;;;;22.42;5.10;;;;;;;;;;5070287;28;20023;-81
2024/01/15 12:48:23;;;;;;;20.63;5.43;;;;;;;;;;5068283;28;20323;-81
2024/01/15 12:50:55;;;;;;;19.63;5.28;;;;;;;;;;5071331;28;20032;-83
2024/01/15 12:53:23;;;;;;;19.77;5.25;;;;;;;;;;5066206;28;20036;-83
2024/01/15 12:55:51;;;;;;;16.83;5.47;;;;;;;;;;5053636;28;20115;-81
2024/01/15 12:58:21;;;;;;;23.15;5.47;;;;;;;;;;5069835;28;20106;-81
2024/01/15 13:00:49;;;;;;;17.52;5.05;;;;;;;;;;5072633;28;20161;-81
2024/01/15 13:03:18;;;;;;;16.60;4.85;;;;;;;;;;5067184;28;20381;-82
2024/01/15 13:05:47;;;;;;;18.95;5.13;;;;;;;;;;5072040;27;20062;-82
2024/01/15 13:08:14;;;;;;;15.90;4.93;;;;;;;;;;5067095;28;20131;-81
2024/01/15 13:10:42;;;;;;;20.13;5.13;;;;;;;;;;5071831;28;20051;-84
2024/01/15 13:13:09;;;;;;;23.30;5.25;;;;;;;;;;5079226;28;20732;-83
2024/01/15 13:15:35;;;;;;;17.60;4.93;;;;;;;;;;5069996;28;20084;-82
2024/01/15 13:18:02;;;;;;;14.20;4.60;;;;;;;;;;5086839;28;20042;-81
2024/01/15 13:20:32;;;;;;;21.33;5.20;;;;;;;;;;5082108;27;20027;-82
2024/01/15 13:23:03;;;;;;;17.67;4.57;;;;;;;;;;5085138;28;20108;-82
2024/01/15 13:25:37;;;;;;;17.05;4.18;;;;;;;;;;5086364;27;20016;-81
2024/01/15 13:28:15;;;;;;;13.38;4.10;;;;;;;;;;5083113;27;20035;-81
2024/01/15 13:30:43;;;;;;;16.05;4.72;;;;;;;;;;5085832;27;20055;-83
2024/01/15 13:33:11;;;;;;;14.55;4.20;;;;;;;;;;5066417;28;20148;-81
2024/01/15 13:35:39;;;;;;;14.90;3.30;;;;;;;;;;5067873;28;20035;-81
2024/01/15 13:38:08;;;;;;;11.45;3.00;;;;;;;;;;5064887;27;20720;-82
2024/01/15 13:40:37;;;;;;;12.50;2.75;;;;;;;;;;5086191;27;20111;-83
2024/01/15 13:43:08;;;;;;;11.00;2.75;;;;;;;;;;5084644;27;20939;-82
2024/01/15 13:45:37;;;;;;;10.90;2.50;;;;;;;;;;5070872;28;20024;-82
2024/01/15 13:48:09;;;;;;;10.63;2.47;;;;;;;;;;5088151;27;20043;-83
2024/01/15 13:50:37;;;;;;;10.45;2.40;;;;;;;;;;5087634;27;20060;-83
2024/01/15 13:53:06;;;;;;;9.30;2.50;;;;;;;;;;5071128;28;20871;-83
2024/01/15 13:55:56;;;;;;;10.38;2.72;;;;;;;;;;5087396;27;20034;-83
2024/01/15 13:58:25;;;;;;;10.35;2.58;;;;;;;;;;5081978;27;20035;-84
2024/01/15 14:00:53;;;;;;;10.52;2.78;;;;;;;;;;5087912;28;20672;-83
2024/01/15 14:03:21;;;;;;;11.68;2.55;;;;;;;;;;5081979;28;20063;-82
2024/01/15 14:05:50;;;;;;;10.07;2.10;;;;;;;;;;5067040;28;20027;-82
2024/01/15 14:08:21;;;;;;;9.88;2.95;;;;;;;;;;5081199;27;20096;-82
2024/01/15 14:10:50;;;;;;;12.73;2.97;;;;;;;;;;5082693;28;20489;-81
2024/01/15 14:13:18;;;;;;;9.05;2.53;;;;;;;;;;5083247;27;20089;-84
2024/01/15 14:15:49;;;;;;;11.38;2.85;;;;;;;;;;5070649;28;20027;-85
2024/01/15 14:18:20;;;;;;;11.02;2.42;;;;;;;;;;5084170;28;20062;-82
2024/01/15 14:20:48;;;;;;;9.57;2.53;;;;;;;;;;5084740;27;20829;-82
2024/01/15 14:23:17;;;;;;;10.57;2.50;;;;;;;;;;5081156;27;20602;-85
2024/01/15 14:25:45;;;;;;;10.10;2.13;;;;;;;;;;5062676;28;20108;-84
2024/01/15 14:28:14;;;;;;;13.35;2.58;;;;;;;;;;5082775;28;20570;-83
2024/01/15 14:30:41;;;;;;;9.15;2.42;;;;;;;;;;5068238;28;20077;-83
2024/01/15 14:33:10;;;;;;;12.32;2.75;;;;;;;;;;5081994;27;20039;-83
2024/01/15 14:35:40;;;;;;;12.57;2.70;;;;;;;;;;5085925;28;20054;-84
2024/01/15 14:38:07;;;;;;;12.88;2.70;;;;;;;;;;5069312;28;20493;-85
2024/01/15 14:40:37;;;;;;;12.52;2.90;;;;;;;;;;5069470;28;20032;-85
2024/01/15 14:43:06;;;;;;;10.38;2.80;;;;;;;;;;5080473;27;20048;-83
2024/01/15 14:45:34;;;;;;;13.63;2.63;;;;;;;;;;5085640;28;20027;-83